sensor_id;sensor_type;location;lat;lon;timestamp;P1;durP1;ratioP1;P2;durP2;ratioP2
11924;SDS011;6022;48.768;18.608;2023-04-01T00:01:09;1.10;;;0.90;;
11924;SDS011;6022;48.768;18.608;2023-04-01T00:03:43;3.07;;;1.90;;
11924;SDS011;6022;48.768;18.608;2023-04-01T00:06:15;2.93;;;2.00;;
11924;SDS011;6022;48.768;18.608;2023-04-01T00:08:44;0.80;;;0.80;;
11924;SDS011;6022;48.768;18.608;2023-04-01T00:11:12;1.27;;;1.17;;
11924;SDS011;6022;48.768;18.608;2023-04-01T00:13:41;3.23;;;1.70;;
11924;SDS011;6022;48.768;18.608;2023-04-01T00:16:09;4.63;;;1.70;;
11924;SDS011;6022;48.768;18.608;2023-04-01T00:18:47;1.30;;;1.10;;
11924;SDS011;6022;48.768;18.608;2023-04-01T00:21:16;1.43;;;1.13;;
11924;SDS011;6022;48.768;18.608;2023-04-01T00:23:44;2.77;;;1.13;;
11924;SDS011;6022;48.768;18.608;2023-04-01T00:26:11;1.27;;;1.17;;
11924;SDS011;6022;48.768;18.608;2023-04-01T00:28:41;1.00;;;1.00;;
11924;SDS011;6022;48.768;18.608;2023-04-01T00:31:09;4.00;;;0.93;;
11924;SDS011;6022;48.768;18.608;2023-04-01T00:33:37;1.57;;;1.47;;
11924;SDS011;6022;48.768;18.608;2023-04-01T00:38:35;2.33;;;1.73;;
11924;SDS011;6022;48.768;18.608;2023-04-01T00:41:04;3.67;;;0.77;;
11924;SDS011;6022;48.768;18.608;2023-04-01T00:43:32;2.77;;;1.33;;
11924;SDS011;6022;48.768;18.608;2023-04-01T00:46:00;1.90;;;1.40;;
11924;SDS011;6022;48.768;18.608;2023-04-01T00:48:32;1.50;;;1.00;;
11924;SDS011;6022;48.768;18.608;2023-04-01T00:51:06;1.73;;;1.37;;
11924;SDS011;6022;48.768;18.608;2023-04-01T00:53:39;0.83;;;0.83;;
11924;SDS011;6022;48.768;18.608;2023-04-01T00:56:14;1.03;;;0.93;;
11924;SDS011;6022;48.768;18.608;2023-04-01T00:58:50;2.10;;;1.63;;
11924;SDS011;6022;48.768;18.608;2023-04-01T01:01:24;3.03;;;1.53;;
11924;SDS011;6022;48.768;18.608;2023-04-01T01:03:52;1.60;;;1.40;;
11924;SDS011;6022;48.768;18.608;2023-04-01T01:12:16;1.60;;;1.50;;
11924;SDS011;6022;48.768;18.608;2023-04-01T01:18:05;2.10;;;1.40;;
11924;SDS011;6022;48.768;18.608;2023-04-01T01:26:42;1.23;;;1.13;;
11924;SDS011;6022;48.768;18.608;2023-04-01T01:36:04;1.20;;;1.10;;
11924;SDS011;6022;48.768;18.608;2023-04-01T01:38:36;4.00;;;2.07;;
11924;SDS011;6022;48.768;18.608;2023-04-01T01:41:06;1.20;;;1.10;;
11924;SDS011;6022;48.768;18.608;2023-04-01T01:43:36;1.47;;;1.37;;
11924;SDS011;6022;48.768;18.608;2023-04-01T01:46:11;2.13;;;1.67;;
11924;SDS011;6022;48.768;18.608;2023-04-01T01:48:43;3.87;;;2.17;;
11924;SDS011;6022;48.768;18.608;2023-04-01T01:51:13;2.57;;;1.60;;
11924;SDS011;6022;48.768;18.608;2023-04-01T01:53:42;1.17;;;1.07;;
11924;SDS011;6022;48.768;18.608;2023-04-01T01:56:10;2.53;;;1.73;;
11924;SDS011;6022;48.768;18.608;2023-04-01T01:58:49;2.27;;;1.53;;
11924;SDS011;6022;48.768;18.608;2023-04-01T02:01:25;3.53;;;2.00;;
11924;SDS011;6022;48.768;18.608;2023-04-01T02:03:58;1.83;;;1.73;;
11924;SDS011;6022;48.768;18.608;2023-04-01T02:06:27;2.67;;;2.13;;
11924;SDS011;6022;48.768;18.608;2023-04-01T02:08:59;1.87;;;1.77;;
11924;SDS011;6022;48.768;18.608;2023-04-01T02:11:32;1.80;;;1.70;;
11924;SDS011;6022;48.768;18.608;2023-04-01T02:14:10;1.77;;;1.67;;
11924;SDS011;6022;48.768;18.608;2023-04-01T02:22:20;2.00;;;1.53;;
11924;SDS011;6022;48.768;18.608;2023-04-01T02:24:54;1.20;;;1.10;;
11924;SDS011;6022;48.768;18.608;2023-04-01T02:27:27;3.33;;;1.43;;
11924;SDS011;6022;48.768;18.608;2023-04-01T02:29:56;1.53;;;1.43;;
11924;SDS011;6022;48.768;18.608;2023-04-01T02:32:24;1.50;;;1.40;;
11924;SDS011;6022;48.768;18.608;2023-04-01T02:34:56;2.10;;;1.60;;
11924;SDS011;6022;48.768;18.608;2023-04-01T02:37:25;2.97;;;1.77;;
11924;SDS011;6022;48.768;18.608;2023-04-01T02:39:52;2.53;;;1.90;;
11924;SDS011;6022;48.768;18.608;2023-04-01T02:42:19;1.93;;;1.50;;
11924;SDS011;6022;48.768;18.608;2023-04-01T02:44:47;1.93;;;1.70;;
11924;SDS011;6022;48.768;18.608;2023-04-01T02:47:14;2.63;;;1.77;;
11924;SDS011;6022;48.768;18.608;2023-04-01T02:49:41;1.33;;;1.23;;
11924;SDS011;6022;48.768;18.608;2023-04-01T02:52:08;2.77;;;1.70;;
11924;SDS011;6022;48.768;18.608;2023-04-01T02:54:36;1.43;;;1.33;;
11924;SDS011;6022;48.768;18.608;2023-04-01T02:57:03;7.27;;;1.40;;
11924;SDS011;6022;48.768;18.608;2023-04-01T02:59:30;2.27;;;1.10;;
11924;SDS011;6022;48.768;18.608;2023-04-01T03:01:58;3.53;;;1.60;;
11924;SDS011;6022;48.768;18.608;2023-04-01T03:04:25;1.63;;;1.30;;
11924;SDS011;6022;48.768;18.608;2023-04-01T03:06:52;1.93;;;1.43;;
11924;SDS011;6022;48.768;18.608;2023-04-01T03:09:21;2.03;;;1.33;;
11924;SDS011;6022;48.768;18.608;2023-04-01T03:11:48;2.13;;;0.97;;
11924;SDS011;6022;48.768;18.608;2023-04-01T03:14:15;3.00;;;1.60;;
11924;SDS011;6022;48.768;18.608;2023-04-01T03:16:43;1.30;;;1.07;;
11924;SDS011;6022;48.768;18.608;2023-04-01T03:19:15;2.17;;;1.07;;
11924;SDS011;6022;48.768;18.608;2023-04-01T03:21:42;2.27;;;1.30;;
11924;SDS011;6022;48.768;18.608;2023-04-01T03:24:09;1.67;;;1.37;;
11924;SDS011;6022;48.768;18.608;2023-04-01T03:26:36;3.50;;;1.90;;
11924;SDS011;6022;48.768;18.608;2023-04-01T03:29:04;2.30;;;1.23;;
11924;SDS011;6022;48.768;18.608;2023-04-01T03:31:31;1.93;;;1.30;;
11924;SDS011;6022;48.768;18.608;2023-04-01T03:33:58;3.30;;;1.37;;
11924;SDS011;6022;48.768;18.608;2023-04-01T03:36:27;1.60;;;0.90;;
11924;SDS011;6022;48.768;18.608;2023-04-01T03:38:54;2.27;;;1.23;;
11924;SDS011;6022;48.768;18.608;2023-04-01T03:41:21;6.43;;;1.77;;
11924;SDS011;6022;48.768;18.608;2023-04-01T03:43:49;3.00;;;1.60;;
11924;SDS011;6022;48.768;18.608;2023-04-01T03:46:17;1.33;;;1.30;;
11924;SDS011;6022;48.768;18.608;2023-04-01T03:48:45;2.33;;;1.63;;
11924;SDS011;6022;48.768;18.608;2023-04-01T03:51:13;2.03;;;1.23;;
11924;SDS011;6022;48.768;18.608;2023-04-01T03:53:40;2.67;;;1.40;;
11924;SDS011;6022;48.768;18.608;2023-04-01T03:56:08;3.30;;;1.60;;
11924;SDS011;6022;48.768;18.608;2023-04-01T03:58:35;1.47;;;1.37;;
11924;SDS011;6022;48.768;18.608;2023-04-01T04:01:18;2.17;;;1.17;;
11924;SDS011;6022;48.768;18.608;2023-04-01T04:03:48;3.77;;;1.53;;
11924;SDS011;6022;48.768;18.608;2023-04-01T04:06:17;1.43;;;1.27;;
11924;SDS011;6022;48.768;18.608;2023-04-01T04:08:45;2.87;;;2.20;;
11924;SDS011;6022;48.768;18.608;2023-04-01T04:11:13;2.47;;;2.17;;
11924;SDS011;6022;48.768;18.608;2023-04-01T04:13:41;1.90;;;1.67;;
11924;SDS011;6022;48.768;18.608;2023-04-01T04:16:09;4.13;;;1.43;;
11924;SDS011;6022;48.768;18.608;2023-04-01T04:18:37;1.53;;;1.43;;
11924;SDS011;6022;48.768;18.608;2023-04-01T04:21:04;3.37;;;2.07;;
11924;SDS011;6022;48.768;18.608;2023-04-01T04:23:32;1.10;;;1.00;;
11924;SDS011;6022;48.768;18.608;2023-04-01T04:26:01;3.53;;;1.17;;
11924;SDS011;6022;48.768;18.608;2023-04-01T04:28:35;0.80;;;0.80;;
11924;SDS011;6022;48.768;18.608;2023-04-01T04:31:02;2.27;;;1.73;;
11924;SDS011;6022;48.768;18.608;2023-04-01T04:33:32;0.90;;;0.90;;
11924;SDS011;6022;48.768;18.608;2023-04-01T04:35:59;3.27;;;2.27;;
11924;SDS011;6022;48.768;18.608;2023-04-01T04:38:29;1.27;;;1.13;;
11924;SDS011;6022;48.768;18.608;2023-04-01T04:40:56;2.40;;;1.50;;
11924;SDS011;6022;48.768;18.608;2023-04-01T04:43:24;2.03;;;1.73;;
11924;SDS011;6022;48.768;18.608;2023-04-01T04:45:52;1.83;;;1.43;;
11924;SDS011;6022;48.768;18.608;2023-04-01T04:48:19;1.33;;;1.20;;
11924;SDS011;6022;48.768;18.608;2023-04-01T04:50:50;2.93;;;1.50;;
11924;SDS011;6022;48.768;18.608;2023-04-01T04:53:18;5.23;;;1.87;;
11924;SDS011;6022;48.768;18.608;2023-04-01T04:55:49;1.70;;;1.60;;
11924;SDS011;6022;48.768;18.608;2023-04-01T04:58:17;2.47;;;1.60;;
11924;SDS011;6022;48.768;18.608;2023-04-01T05:00:45;2.20;;;2.00;;
11924;SDS011;6022;48.768;18.608;2023-04-01T05:03:13;1.80;;;1.53;;
11924;SDS011;6022;48.768;18.608;2023-04-01T05:05:47;3.37;;;2.10;;
11924;SDS011;6022;48.768;18.608;2023-04-01T05:08:19;2.13;;;2.03;;
11924;SDS011;6022;48.768;18.608;2023-04-01T05:10:47;5.57;;;2.30;;
11924;SDS011;6022;48.768;18.608;2023-04-01T05:13:14;2.43;;;1.93;;
11924;SDS011;6022;48.768;18.608;2023-04-01T05:15:41;2.23;;;2.03;;
11924;SDS011;6022;48.768;18.608;2023-04-01T05:18:11;2.00;;;1.80;;
11924;SDS011;6022;48.768;18.608;2023-04-01T05:20:38;1.50;;;1.40;;
11924;SDS011;6022;48.768;18.608;2023-04-01T05:23:05;2.53;;;2.33;;
11924;SDS011;6022;48.768;18.608;2023-04-01T05:25:32;3.40;;;2.10;;
11924;SDS011;6022;48.768;18.608;2023-04-01T05:28:00;2.07;;;1.50;;
11924;SDS011;6022;48.768;18.608;2023-04-01T05:30:30;2.83;;;2.00;;
11924;SDS011;6022;48.768;18.608;2023-04-01T05:32:57;2.30;;;1.73;;
11924;SDS011;6022;48.768;18.608;2023-04-01T05:35:25;3.17;;;1.87;;
11924;SDS011;6022;48.768;18.608;2023-04-01T05:37:53;2.20;;;1.73;;
11924;SDS011;6022;48.768;18.608;2023-04-01T05:40:21;2.27;;;1.87;;
11924;SDS011;6022;48.768;18.608;2023-04-01T05:42:51;3.57;;;1.87;;
11924;SDS011;6022;48.768;18.608;2023-04-01T05:45:18;2.37;;;1.90;;
11924;SDS011;6022;48.768;18.608;2023-04-01T05:47:46;2.27;;;1.50;;
11924;SDS011;6022;48.768;18.608;2023-04-01T05:50:13;2.93;;;2.10;;
11924;SDS011;6022;48.768;18.608;2023-04-01T05:52:41;2.30;;;2.10;;
11924;SDS011;6022;48.768;18.608;2023-04-01T05:55:08;3.07;;;2.53;;
11924;SDS011;6022;48.768;18.608;2023-04-01T05:57:36;2.43;;;2.23;;
11924;SDS011;6022;48.768;18.608;2023-04-01T06:00:03;1.80;;;1.40;;
11924;SDS011;6022;48.768;18.608;2023-04-01T06:02:31;3.10;;;2.30;;
11924;SDS011;6022;48.768;18.608;2023-04-01T06:05:03;3.07;;;2.23;;
11924;SDS011;6022;48.768;18.608;2023-04-01T06:08:01;1.40;;;1.40;;
11924;SDS011;6022;48.768;18.608;2023-04-01T06:10:40;2.00;;;1.77;;
11924;SDS011;6022;48.768;18.608;2023-04-01T06:16:35;3.60;;;2.33;;
11924;SDS011;6022;48.768;18.608;2023-04-01T06:56:44;0.80;;;0.80;;
11924;SDS011;6022;48.768;18.608;2023-04-01T06:59:20;1.10;;;1.00;;
11924;SDS011;6022;48.768;18.608;2023-04-01T07:04:29;1.53;;;0.63;;
11924;SDS011;6022;48.768;18.608;2023-04-01T07:07:43;1.70;;;0.50;;
11924;SDS011;6022;48.768;18.608;2023-04-01T07:09:57;1.90;;;0.60;;
11924;SDS011;6022;48.768;18.608;2023-04-01T07:18:15;1.57;;;1.33;;
11924;SDS011;6022;48.768;18.608;2023-04-01T07:20:50;1.03;;;0.83;;
11924;SDS011;6022;48.768;18.608;2023-04-01T07:23:25;1.47;;;1.20;;
11924;SDS011;6022;48.768;18.608;2023-04-01T07:26:22;0.97;;;0.90;;
11924;SDS011;6022;48.768;18.608;2023-04-01T07:28:51;1.43;;;1.23;;
11924;SDS011;6022;48.768;18.608;2023-04-01T07:34:18;1.23;;;1.13;;
11924;SDS011;6022;48.768;18.608;2023-04-01T07:40:01;0.87;;;0.83;;
11924;SDS011;6022;48.768;18.608;2023-04-01T07:48:47;0.83;;;0.83;;
11924;SDS011;6022;48.768;18.608;2023-04-01T07:54:56;0.73;;;0.73;;
11924;SDS011;6022;48.768;18.608;2023-04-01T07:57:49;1.53;;;0.97;;
11924;SDS011;6022;48.768;18.608;2023-04-01T08:06:54;1.53;;;1.07;;
11924;SDS011;6022;48.768;18.608;2023-04-01T08:10:09;1.10;;;0.60;;
11924;SDS011;6022;48.768;18.608;2023-04-01T08:21:54;0.67;;;0.63;;
11924;SDS011;6022;48.768;18.608;2023-04-01T08:24:43;0.77;;;0.77;;
11924;SDS011;6022;48.768;18.608;2023-04-01T08:27:24;0.30;;;0.30;;
11924;SDS011;6022;48.768;18.608;2023-04-01T08:33:33;0.47;;;0.47;;
11924;SDS011;6022;48.768;18.608;2023-04-01T08:38:48;1.63;;;0.80;;
11924;SDS011;6022;48.768;18.608;2023-04-01T08:53:58;1.50;;;0.73;;
11924;SDS011;6022;48.768;18.608;2023-04-01T08:57:01;1.47;;;1.07;;
11924;SDS011;6022;48.768;18.608;2023-04-01T09:17:30;9.57;;;5.23;;
11924;SDS011;6022;48.768;18.608;2023-04-01T09:20:40;0.73;;;0.57;;
11924;SDS011;6022;48.768;18.608;2023-04-01T09:33:12;0.30;;;0.30;;
11924;SDS011;6022;48.768;18.608;2023-04-01T09:39:15;1.13;;;0.60;;
11924;SDS011;6022;48.768;18.608;2023-04-01T09:50:41;0.20;;;0.20;;
11924;SDS011;6022;48.768;18.608;2023-04-01T10:11:59;0.50;;;0.43;;
11924;SDS011;6022;48.768;18.608;2023-04-01T10:20:59;0.87;;;0.20;;
11924;SDS011;6022;48.768;18.608;2023-04-01T10:57:47;0.87;;;0.47;;
11924;SDS011;6022;48.768;18.608;2023-04-01T11:00:57;0.90;;;0.20;;
11924;SDS011;6022;48.768;18.608;2023-04-01T11:07:32;0.20;;;0.20;;
11924;SDS011;6022;48.768;18.608;2023-04-01T11:44:29;0.30;;;0.30;;
11924;SDS011;6022;48.768;18.608;2023-04-01T11:49:59;0.30;;;0.20;;
11924;SDS011;6022;48.768;18.608;2023-04-01T12:01:25;0.20;;;0.20;;
11924;SDS011;6022;48.768;18.608;2023-04-01T12:12:54;0.17;;;0.17;;
11924;SDS011;6022;48.768;18.608;2023-04-01T12:15:36;0.37;;;0.33;;
11924;SDS011;6022;48.768;18.608;2023-04-01T12:18:52;0.67;;;0.50;;
11924;SDS011;6022;48.768;18.608;2023-04-01T12:24:45;1.17;;;0.30;;
11924;SDS011;6022;48.768;18.608;2023-04-01T12:31:05;0.57;;;0.40;;
11924;SDS011;6022;48.768;18.608;2023-04-01T12:58:10;0.20;;;0.20;;
11924;SDS011;6022;48.768;18.608;2023-04-01T13:01:16;0.60;;;0.60;;
11924;SDS011;6022;48.768;18.608;2023-04-01T13:04:03;0.40;;;0.40;;
11924;SDS011;6022;48.768;18.608;2023-04-01T13:06:40;0.10;;;0.10;;
11924;SDS011;6022;48.768;18.608;2023-04-01T13:16:16;0.37;;;0.37;;
11924;SDS011;6022;48.768;18.608;2023-04-01T13:24:25;0.70;;;0.37;;
11924;SDS011;6022;48.768;18.608;2023-04-01T13:30:27;1.23;;;0.40;;
11924;SDS011;6022;48.768;18.608;2023-04-01T13:33:41;0.17;;;0.17;;
11924;SDS011;6022;48.768;18.608;2023-04-01T13:36:31;0.50;;;0.30;;
11924;SDS011;6022;48.768;18.608;2023-04-01T13:45:00;4.60;;;0.33;;
11924;SDS011;6022;48.768;18.608;2023-04-01T13:47:49;0.30;;;0.30;;
11924;SDS011;6022;48.768;18.608;2023-04-01T13:59:27;0.20;;;0.10;;
11924;SDS011;6022;48.768;18.608;2023-04-01T14:23:19;0.40;;;0.40;;
11924;SDS011;6022;48.768;18.608;2023-04-01T14:35:37;0.23;;;0.23;;
11924;SDS011;6022;48.768;18.608;2023-04-01T14:38:31;0.30;;;0.30;;
11924;SDS011;6022;48.768;18.608;2023-04-01T14:41:21;0.10;;;0.10;;
11924;SDS011;6022;48.768;18.608;2023-04-01T14:44:15;6.90;;;3.93;;
11924;SDS011;6022;48.768;18.608;2023-04-01T14:47:04;1.23;;;0.63;;
11924;SDS011;6022;48.768;18.608;2023-04-01T14:49:48;1.57;;;0.20;;
11924;SDS011;6022;48.768;18.608;2023-04-01T14:52:32;0.20;;;0.20;;
11924;SDS011;6022;48.768;18.608;2023-04-01T14:55:19;1.87;;;0.70;;
11924;SDS011;6022;48.768;18.608;2023-04-01T14:58:04;0.30;;;0.30;;
11924;SDS011;6022;48.768;18.608;2023-04-01T15:03:40;0.60;;;0.47;;
11924;SDS011;6022;48.768;18.608;2023-04-01T15:15:58;0.30;;;0.30;;
11924;SDS011;6022;48.768;18.608;2023-04-01T15:33:39;0.10;;;0.10;;
11924;SDS011;6022;48.768;18.608;2023-04-01T15:36:29;0.50;;;0.30;;
11924;SDS011;6022;48.768;18.608;2023-04-01T15:48:44;0.37;;;0.33;;
11924;SDS011;6022;48.768;18.608;2023-04-01T15:51:48;0.97;;;0.40;;
11924;SDS011;6022;48.768;18.608;2023-04-01T16:09:52;0.67;;;0.37;;
11924;SDS011;6022;48.768;18.608;2023-04-01T16:28:25;1.13;;;0.30;;
11924;SDS011;6022;48.768;18.608;2023-04-01T16:31:14;0.73;;;0.57;;
11924;SDS011;6022;48.768;18.608;2023-04-01T16:34:08;0.43;;;0.43;;
11924;SDS011;6022;48.768;18.608;2023-04-01T16:40:01;0.20;;;0.20;;
11924;SDS011;6022;48.768;18.608;2023-04-01T16:45:35;0.40;;;0.17;;
11924;SDS011;6022;48.768;18.608;2023-04-01T16:48:50;1.13;;;0.50;;
11924;SDS011;6022;48.768;18.608;2023-04-01T16:57:23;1.17;;;0.83;;
11924;SDS011;6022;48.768;18.608;2023-04-01T17:18:22;2.90;;;1.23;;
11924;SDS011;6022;48.768;18.608;2023-04-01T17:30:23;2.43;;;0.60;;
11924;SDS011;6022;48.768;18.608;2023-04-01T17:35:58;4.70;;;4.10;;
11924;SDS011;6022;48.768;18.608;2023-04-01T17:41:53;3.00;;;1.70;;
11924;SDS011;6022;48.768;18.608;2023-04-01T17:53:07;0.63;;;0.63;;
11924;SDS011;6022;48.768;18.608;2023-04-01T17:58:46;1.17;;;0.80;;
11924;SDS011;6022;48.768;18.608;2023-04-01T18:25:44;4.83;;;0.90;;
11924;SDS011;6022;48.768;18.608;2023-04-01T18:28:21;1.10;;;1.07;;
11924;SDS011;6022;48.768;18.608;2023-04-01T18:31:04;3.93;;;1.60;;
11924;SDS011;6022;48.768;18.608;2023-04-01T18:36:44;2.23;;;1.87;;
11924;SDS011;6022;48.768;18.608;2023-04-01T18:45:14;1.73;;;1.43;;
11924;SDS011;6022;48.768;18.608;2023-04-01T18:50:55;1.90;;;1.60;;
11924;SDS011;6022;48.768;18.608;2023-04-01T18:56:10;3.47;;;1.83;;
11924;SDS011;6022;48.768;18.608;2023-04-01T18:59:03;2.87;;;1.40;;
11924;SDS011;6022;48.768;18.608;2023-04-01T19:04:38;2.77;;;2.10;;
11924;SDS011;6022;48.768;18.608;2023-04-01T19:10:13;2.47;;;1.90;;
11924;SDS011;6022;48.768;18.608;2023-04-01T19:28:26;6.33;;;1.70;;
11924;SDS011;6022;48.768;18.608;2023-04-01T19:31:40;2.83;;;2.07;;
11924;SDS011;6022;48.768;18.608;2023-04-01T19:37:39;4.50;;;1.67;;
11924;SDS011;6022;48.768;18.608;2023-04-01T19:40:17;2.13;;;1.37;;
11924;SDS011;6022;48.768;18.608;2023-04-01T19:43:23;1.67;;;1.57;;
11924;SDS011;6022;48.768;18.608;2023-04-01T19:46:25;2.97;;;1.67;;
11924;SDS011;6022;48.768;18.608;2023-04-01T19:49:23;2.47;;;2.23;;
11924;SDS011;6022;48.768;18.608;2023-04-01T19:52:48;3.07;;;1.53;;
11924;SDS011;6022;48.768;18.608;2023-04-01T20:00:57;2.03;;;1.93;;
11924;SDS011;6022;48.768;18.608;2023-04-01T20:20:56;2.57;;;2.33;;
11924;SDS011;6022;48.768;18.608;2023-04-01T20:23:41;4.33;;;1.97;;
11924;SDS011;6022;48.768;18.608;2023-04-01T20:26:27;4.53;;;2.63;;
11924;SDS011;6022;48.768;18.608;2023-04-01T20:40:50;7.10;;;4.10;;
11924;SDS011;6022;48.768;18.608;2023-04-01T20:43:30;5.13;;;3.20;;
11924;SDS011;6022;48.768;18.608;2023-04-01T20:46:37;5.77;;;3.03;;
11924;SDS011;6022;48.768;18.608;2023-04-01T20:50:04;9.97;;;3.80;;
11924;SDS011;6022;48.768;18.608;2023-04-01T20:52:38;4.10;;;2.40;;
11924;SDS011;6022;48.768;18.608;2023-04-01T20:55:19;4.10;;;3.20;;
11924;SDS011;6022;48.768;18.608;2023-04-01T20:58:24;6.83;;;2.33;;
11924;SDS011;6022;48.768;18.608;2023-04-01T21:17:06;7.63;;;2.67;;
11924;SDS011;6022;48.768;18.608;2023-04-01T21:20:04;4.53;;;2.97;;
11924;SDS011;6022;48.768;18.608;2023-04-01T21:28:58;5.57;;;2.97;;
11924;SDS011;6022;48.768;18.608;2023-04-01T21:41:34;7.93;;;3.17;;
11924;SDS011;6022;48.768;18.608;2023-04-01T21:59:42;2.63;;;2.33;;
11924;SDS011;6022;48.768;18.608;2023-04-01T22:05:26;2.43;;;2.17;;
11924;SDS011;6022;48.768;18.608;2023-04-01T22:08:22;3.57;;;2.20;;
11924;SDS011;6022;48.768;18.608;2023-04-01T22:11:33;3.00;;;2.00;;
11924;SDS011;6022;48.768;18.608;2023-04-01T22:17:38;2.80;;;2.50;;
11924;SDS011;6022;48.768;18.608;2023-04-01T22:20:29;2.67;;;1.93;;
11924;SDS011;6022;48.768;18.608;2023-04-01T22:31:51;3.30;;;2.60;;
11924;SDS011;6022;48.768;18.608;2023-04-01T22:34:37;5.00;;;2.67;;
11924;SDS011;6022;48.768;18.608;2023-04-01T22:43:23;5.03;;;3.03;;
11924;SDS011;6022;48.768;18.608;2023-04-01T22:49:15;2.43;;;2.23;;
11924;SDS011;6022;48.768;18.608;2023-04-01T22:54:58;3.33;;;2.30;;
11924;SDS011;6022;48.768;18.608;2023-04-01T23:03:25;2.87;;;2.67;;
11924;SDS011;6022;48.768;18.608;2023-04-01T23:06:00;7.40;;;2.33;;
11924;SDS011;6022;48.768;18.608;2023-04-01T23:16:49;2.87;;;1.60;;
11924;SDS011;6022;48.768;18.608;2023-04-01T23:19:41;3.17;;;2.87;;
11924;SDS011;6022;48.768;18.608;2023-04-01T23:25:46;3.63;;;2.37;;
11924;SDS011;6022;48.768;18.608;2023-04-01T23:36:41;2.33;;;1.73;;
11924;SDS011;6022;48.768;18.608;2023-04-01T23:39:22;5.33;;;2.40;;
11924;SDS011;6022;48.768;18.608;2023-04-01T23:42:06;2.23;;;1.90;;
11924;SDS011;6022;48.768;18.608;2023-04-01T23:44:59;4.03;;;2.23;;
11924;SDS011;6022;48.768;18.608;2023-04-01T23:47:48;10.43;;;2.47;;
11924;SDS011;6022;48.768;18.608;2023-04-01T23:50:19;3.23;;;2.17;;
11924;SDS011;6022;48.768;18.608;2023-04-01T23:53:02;4.57;;;3.00;;
11924;SDS011;6022;48.768;18.608;2023-04-01T23:55:42;5.13;;;2.53;;
11924;SDS011;6022;48.768;18.608;2023-04-01T23:58:24;4.87;;;2.80;;
